Richardson's Hourly Summary for Saturday, May 12, 2018
Hour Temp
(f)
RH
(%)
Solar Rad.
(MJ/m2)
Rainfall
(in)
Wind
(mph)
5/12/2018 12:00 AM 77 55 0 0 6.53
5/12/2018 1:00 AM 75 58 0 0 7.75
5/12/2018 2:00 AM 74 63 0 0 8.66
5/12/2018 3:00 AM 73 67 0 0 9.11
5/12/2018 4:00 AM 72 72 0 0 8.68
5/12/2018 5:00 AM 72 77 0 0 9.23
5/12/2018 6:00 AM 72 78 0 0 7.49
5/12/2018 7:00 AM 72 80 0.03 0 6.67
5/12/2018 8:00 AM 72 80 0.38 0 6.4
5/12/2018 9:00 AM 74 74 0.54 0 6.79
5/12/2018 10:00 AM 76 67 1.28 0 8.91
5/12/2018 11:00 AM 79 57 2.24 0 8.94
5/12/2018 12:00 PM 81 47 2.67 0 9.27
5/12/2018 1:00 PM 83 46 3.12 0 9.59
5/12/2018 2:00 PM 84 41 2.94 0 8.87
5/12/2018 3:00 PM 85 41 2.61 0 8.64
5/12/2018 4:00 PM 86 38 2.58 0 8.9
5/12/2018 5:00 PM 86 38 1.95 0 9.08
5/12/2018 6:00 PM 86 38 1.39 0 8.72
5/12/2018 7:00 PM 85 43 0.66 0 7.67
5/12/2018 8:00 PM 84 43 0.24 0 6.73
5/12/2018 9:00 PM 82 48 0.01 0 4.28
5/12/2018 10:00 PM 80 53 0 0 3.85
5/12/2018 11:00 PM 78 58 0 0 3.69
Data Summary 78 56 22.64 0.00 7.69